Time;durP1;ratioP1;P1;durP2;ratioP2;P2;SDS_P1;SDS_P2;PMS_P1;PMS_P2;Temp;Humidity;BMP_temperature;BMP_pressure;BME280_temperature;BME280_humidity;BME280_pressure;Samples;Min_cycle;Max_cycle;Signal;HPM_P1;HPM_P2
2023/03/14 00:02:11;;;;;;;4.70;2.20;;;;;;;12.34;46.20;96522.65;105996;1258;61163;-79
2023/03/14 00:04:37;;;;;;;3.80;1.80;;;;;;;12.29;46.25;96519.59;105908;1261;62074;-80
2023/03/14 00:07:04;;;;;;;7.10;1.80;;;;;;;12.31;46.30;96519.66;106005;1258;61912;-79
2023/03/14 00:09:30;;;;;;;2.30;1.20;;;;;;;12.31;46.27;96523.17;105991;1256;61231;-79
2023/03/14 00:11:57;;;;;;;3.80;2.30;;;;;;;12.35;46.23;96511.42;106003;1258;61144;-80
2023/03/14 00:14:23;;;;;;;5.50;3.00;;;;;;;12.38;46.00;96507.44;105985;1256;61404;-80
2023/03/14 00:16:50;;;;;;;4.70;2.10;;;;;;;12.46;45.83;96505.27;106467;1255;61217;-80
2023/03/14 00:19:16;;;;;;;9.70;3.40;;;;;;;12.43;46.20;96499.73;106404;1254;61354;-80
2023/03/14 00:21:43;;;;;;;6.70;3.60;;;;;;;12.41;46.18;96495.39;106479;1258;61278;-81
2023/03/14 00:24:09;;;;;;;5.70;2.80;;;;;;;12.42;46.12;96493.94;106486;1254;62497;-80
2023/03/14 00:26:35;;;;;;;5.90;2.70;;;;;;;12.47;46.28;96495.86;106497;1259;61344;-79
2023/03/14 00:29:02;;;;;;;6.50;3.10;;;;;;;12.53;46.23;96490.70;106497;1254;61320;-80
2023/03/14 00:31:29;;;;;;;6.50;2.70;;;;;;;12.57;46.33;96487.15;106491;1259;59334;-80
2023/03/14 00:33:55;;;;;;;8.30;3.10;;;;;;;12.62;46.44;96486.34;106520;1259;62377;-80
2023/03/14 00:36:22;;;;;;;4.70;2.80;;;;;;;12.72;46.51;96481.58;106530;1257;61366;-81
2023/03/14 00:38:50;;;;;;;3.30;1.90;;;;;;;12.69;46.78;96475.59;106483;1254;61235;-80
2023/03/14 00:41:18;;;;;;;8.00;2.60;;;;;;;12.67;46.90;96466.84;106516;1258;70938;-79
2023/03/14 00:43:45;;;;;;;6.60;2.60;;;;;;;12.73;46.81;96465.16;106480;1258;72137;-79
2023/03/14 00:46:12;;;;;;;6.80;3.30;;;;;;;12.78;46.96;96467.77;106457;1256;61288;-80
2023/03/14 00:48:38;;;;;;;5.90;2.50;;;;;;;12.83;47.09;96458.53;106529;1254;61147;-81
2023/03/14 00:51:05;;;;;;;3.20;1.70;;;;;;;12.87;47.14;96450.92;106524;1258;61250;-79
2023/03/14 00:53:35;;;;;;;6.40;1.70;;;;;;;12.89;46.96;96434.31;106482;1258;71385;-80
2023/03/14 00:56:06;;;;;;;3.40;1.70;;;;;;;12.88;47.13;96422.70;106421;1256;72532;-79
2023/03/14 00:58:32;;;;;;;5.20;2.30;;;;;;;12.88;47.01;96406.30;108652;1258;59362;-78
2023/03/14 01:00:58;;;;;;;7.50;2.60;;;;;;;12.91;47.00;96391.60;106021;1259;61344;-80
2023/03/14 01:03:25;;;;;;;5.60;2.00;;;;;;;12.96;46.53;96382.14;106016;1259;61220;-81
2023/03/14 01:05:51;;;;;;;7.40;2.50;;;;;;;13.03;46.38;96366.30;105974;1259;61216;-80
2023/03/14 01:08:18;;;;;;;6.80;1.80;;;;;;;13.00;46.37;96365.42;106003;1259;61335;-80
2023/03/14 01:10:44;;;;;;;5.60;2.30;;;;;;;12.98;46.09;96349.60;105991;1256;61276;-80
2023/03/14 01:13:10;;;;;;;6.60;2.70;;;;;;;13.01;46.01;96350.06;105989;1256;61283;-81
2023/03/14 01:15:37;;;;;;;4.00;1.80;;;;;;;13.02;45.99;96349.48;106070;1259;62216;-79
2023/03/14 01:18:04;;;;;;;5.60;2.10;;;;;;;13.06;45.53;96335.86;106047;1258;61324;-79
2023/03/14 01:20:30;;;;;;;3.30;1.50;;;;;;;13.15;44.65;96323.92;106515;1258;61269;-79
2023/03/14 01:22:57;;;;;;;7.40;2.00;;;;;;;13.24;44.27;96314.45;106474;1260;60754;-81
2023/03/14 01:25:23;;;;;;;6.50;2.60;;;;;;;13.22;44.45;96310.66;106518;1259;62603;-81
2023/03/14 01:27:50;;;;;;;4.80;2.50;;;;;;;13.24;44.10;96312.34;106578;1259;59261;-79
2023/03/14 01:30:16;;;;;;;5.40;2.30;;;;;;;13.26;43.71;96305.35;106520;1260;61254;-81
2023/03/14 01:32:43;;;;;;;4.20;1.70;;;;;;;13.26;44.15;96315.14;106537;1259;61411;-78
2023/03/14 01:35:09;;;;;;;4.90;2.20;;;;;;;13.24;43.69;96309.48;106000;1259;61240;-79
2023/03/14 01:37:35;;;;;;;3.60;1.70;;;;;;;13.28;43.43;96304.48;106051;1259;61353;-79
2023/03/14 01:40:03;;;;;;;4.10;1.90;;;;;;;13.29;43.28;96306.55;106539;1261;59303;-79
2023/03/14 01:42:30;;;;;;;6.80;2.00;;;;;;;13.33;43.38;96303.50;106557;1258;71098;-80
2023/03/14 01:44:58;;;;;;;5.50;2.90;;;;;;;13.34;43.36;96298.94;106531;1260;61219;-79
2023/03/14 01:47:24;;;;;;;7.20;2.90;;;;;;;13.30;43.40;96296.75;106547;1256;61146;-80
2023/03/14 01:50:10;;;;;;;3.90;1.80;;;;;;;13.31;43.04;96287.16;106463;1258;167125;-80
2023/03/14 01:52:42;;;;;;;4.70;1.70;;;;;;;13.40;42.42;96284.20;106557;1255;74570;-81
2023/03/14 01:55:13;;;;;;;3.80;1.70;;;;;;;13.48;42.29;96277.48;109144;1254;69854;-79
2023/03/14 01:57:43;;;;;;;2.20;1.40;;;;;;;13.55;42.07;96272.40;109284;1254;72208;-79
2023/03/14 02:00:20;;;;;;;6.40;2.20;;;;;;;13.70;41.84;96277.98;109105;1254;58946;-78
2023/03/14 02:02:58;;;;;;;3.00;1.80;;;;;;;13.70;42.18;96279.63;107174;1257;61373;-77
2023/03/14 02:05:35;;;;;;;4.70;3.30;;;;;;;13.64;42.53;96284.25;106043;1260;73407;-78
2023/03/14 02:08:02;;;;;;;2.60;1.80;;;;;;;13.55;42.68;96278.23;105917;1262;70656;-79
2023/03/14 02:10:35;;;;;;;5.90;1.60;;;;;;;13.53;42.72;96276.92;106579;1258;72549;-80
2023/03/14 02:13:03;;;;;;;3.20;1.60;;;;;;;13.42;43.11;96274.93;109236;1254;58851;-78
2023/03/14 02:15:29;;;;;;;5.60;2.20;;;;;;;13.16;43.70;96271.75;109060;1254;60208;-78
2023/03/14 02:17:56;;;;;;;3.90;1.90;;;;;;;12.87;44.92;96267.73;109117;1254;58884;-78
2023/03/14 02:20:28;;;;;;;4.10;2.30;;;;;;;12.52;46.39;96264.20;106019;1254;61220;-76
2023/03/14 02:22:54;;;;;;;5.10;1.90;;;;;;;12.17;48.05;96260.05;106057;1259;71752;-80
2023/03/14 02:26:02;;;;;;;5.80;2.20;;;;;;;11.79;49.37;96256.23;106104;1254;61219;-80
2023/03/14 02:28:29;;;;;;;4.50;2.40;;;;;;;11.46;49.04;96265.22;106287;1259;61201;-80
2023/03/14 02:30:55;;;;;;;3.20;2.10;;;;;;;11.24;49.66;96263.89;106410;1254;61299;-79
2023/03/14 02:33:22;;;;;;;3.80;1.90;;;;;;;10.95;50.79;96258.21;106533;1254;61206;-79
2023/03/14 02:35:52;;;;;;;6.90;2.90;;;;;;;11.00;49.58;96254.61;106571;1254;61286;-80
2023/03/14 02:38:23;;;;;;;3.90;2.10;;;;;;;11.37;48.72;96252.16;107375;1254;61198;-81
2023/03/14 02:40:50;;;;;;;2.80;1.70;;;;;;;11.89;47.88;96248.77;106601;1267;61241;-80
2023/03/14 02:43:16;;;;;;;4.40;1.90;;;;;;;12.18;47.04;96244.73;106493;1254;59611;-79
2023/03/14 02:45:44;;;;;;;4.80;1.50;;;;;;;12.42;46.33;96243.88;106549;1254;61286;-79
2023/03/14 02:48:19;;;;;;;3.40;1.90;;;;;;;12.63;45.93;96239.13;106607;1259;72546;-80
2023/03/14 02:50:48;;;;;;;9.40;2.80;;;;;;;12.81;45.47;96235.77;105940;1255;61176;-80
2023/03/14 02:53:17;;;;;;;4.30;1.60;;;;;;;12.92;44.99;96231.23;106465;1254;61224;-80
2023/03/14 02:55:47;;;;;;;7.70;1.90;;;;;;;13.04;44.59;96224.09;106260;1260;74292;-79
2023/03/14 02:58:14;;;;;;;6.50;2.50;;;;;;;13.07;44.71;96212.06;106560;1257;70885;-79
2023/03/14 03:00:40;;;;;;;7.30;2.30;;;;;;;13.09;44.60;96206.64;106475;1256;72738;-80
2023/03/14 03:03:07;;;;;;;4.80;2.30;;;;;;;13.06;44.88;96197.58;106499;1256;61362;-79
2023/03/14 03:05:33;;;;;;;6.90;3.30;;;;;;;13.02;44.91;96190.86;106528;1256;61245;-80
2023/03/14 03:08:00;;;;;;;7.20;2.80;;;;;;;12.95;45.20;96191.27;106529;1255;73465;-76
2023/03/14 03:10:27;;;;;;;5.90;3.30;;;;;;;12.91;45.44;96186.95;106023;1257;69852;-80
2023/03/14 03:12:54;;;;;;;3.80;1.70;;;;;;;12.91;45.27;96191.61;105971;1260;72358;-80
2023/03/14 03:15:20;;;;;;;7.60;4.10;;;;;;;12.92;45.17;96184.65;106012;1257;61555;-80
2023/03/14 03:17:46;;;;;;;3.40;1.90;;;;;;;12.90;45.25;96179.70;105926;1260;61227;-79
2023/03/14 03:20:13;;;;;;;3.80;2.30;;;;;;;12.87;45.40;96175.71;106022;1258;61250;-79
2023/03/14 03:22:40;;;;;;;3.00;2.20;;;;;;;12.82;45.63;96170.95;106501;1260;71434;-81
2023/03/14 03:25:06;;;;;;;3.20;2.20;;;;;;;12.74;45.75;96168.30;106562;1254;61349;-81
2023/03/14 03:27:34;;;;;;;5.70;1.80;;;;;;;12.69;46.10;96170.55;108227;1254;61250;-77
2023/03/14 03:30:00;;;;;;;3.90;1.90;;;;;;;12.63;46.42;96175.13;106011;1254;61277;-81
2023/03/14 03:32:27;;;;;;;3.10;1.80;;;;;;;12.65;46.42;96178.70;106109;1254;61399;-79
2023/03/14 03:34:53;;;;;;;5.20;2.30;;;;;;;12.70;46.33;96179.88;106046;1254;61347;-81
2023/03/14 03:37:20;;;;;;;5.30;2.50;;;;;;;12.71;46.33;96182.64;106006;1259;61242;-79
2023/03/14 03:39:46;;;;;;;4.40;1.60;;;;;;;12.75;46.10;96185.10;106048;1259;61394;-79
2023/03/14 03:42:12;;;;;;;2.10;1.50;;;;;;;12.90;45.80;96188.70;106023;1260;61365;-81
2023/03/14 03:44:39;;;;;;;3.70;2.10;;;;;;;13.01;45.61;96188.75;106040;1262;61356;-80
2023/03/14 03:47:05;;;;;;;4.50;1.50;;;;;;;13.08;45.47;96192.08;106081;1254;61336;-79
2023/03/14 03:49:32;;;;;;;3.90;1.50;;;;;;;13.08;45.67;96194.10;106040;1261;61286;-81
2023/03/14 03:51:58;;;;;;;4.60;1.50;;;;;;;13.04;45.86;96189.90;106031;1254;61478;-81
2023/03/14 03:54:25;;;;;;;4.00;1.70;;;;;;;13.03;45.77;96187.09;106079;1255;61366;-79
2023/03/14 03:56:52;;;;;;;3.90;1.80;;;;;;;13.13;45.62;96180.40;105997;1260;61214;-79
2023/03/14 03:59:18;;;;;;;4.30;1.90;;;;;;;13.19;45.63;96183.98;106610;1259;61266;-79
2023/03/14 04:01:45;;;;;;;3.90;1.70;;;;;;;13.17;46.17;96176.90;106708;1254;61441;-79
2023/03/14 04:04:11;;;;;;;3.10;1.50;;;;;;;13.11;46.13;96186.19;106696;1254;61273;-80
2023/03/14 04:06:37;;;;;;;2.80;1.40;;;;;;;13.10;46.45;96196.34;106689;1254;61344;-79
2023/03/14 04:09:04;;;;;;;3.90;2.10;;;;;;;13.08;46.57;96196.03;106652;1254;61752;-80
2023/03/14 04:11:30;;;;;;;3.20;1.50;;;;;;;13.01;46.99;96206.85;106631;1254;61317;-82
2023/03/14 04:13:56;;;;;;;9.70;5.20;;;;;;;12.90;47.46;96218.11;106651;1254;61340;-79
2023/03/14 04:16:24;;;;;;;5.40;2.30;;;;;;;12.80;47.62;96223.29;106669;1254;61410;-79
2023/03/14 04:18:50;;;;;;;5.90;2.40;;;;;;;12.70;47.89;96210.77;106594;1254;61222;-79
2023/03/14 04:21:17;;;;;;;6.40;2.70;;;;;;;12.63;48.17;96222.25;106677;1254;61455;-81
2023/03/14 04:23:43;;;;;;;5.20;2.60;;;;;;;12.55;48.44;96228.57;106654;1254;61377;-82
2023/03/14 04:26:10;;;;;;;4.50;2.30;;;;;;;12.51;48.75;96221.55;106656;1254;61266;-79
2023/03/14 04:28:36;;;;;;;8.10;3.60;;;;;;;12.46;48.95;96227.80;106623;1254;62411;-81
2023/03/14 04:31:10;;;;;;;4.60;1.80;;;;;;;12.42;49.09;96233.42;106693;1254;61816;-80
2023/03/14 04:33:37;;;;;;;3.90;1.80;;;;;;;12.38;49.02;96233.42;106582;1255;73585;-79
2023/03/14 04:36:04;;;;;;;5.30;2.70;;;;;;;12.32;49.22;96233.52;107465;1254;61366;-79
2023/03/14 04:38:31;;;;;;;4.20;1.80;;;;;;;12.25;49.52;96241.11;106618;1254;71466;-78
2023/03/14 04:40:57;;;;;;;3.40;1.70;;;;;;;12.19;49.65;96235.94;106637;1254;61258;-79
2023/03/14 04:43:25;;;;;;;6.50;2.40;;;;;;;12.20;49.79;96229.83;106650;1254;61423;-79
2023/03/14 04:45:55;;;;;;;41.10;4.10;;;;;;;12.19;49.96;96226.77;106512;1253;73358;-79
2023/03/14 04:48:22;;;;;;;5.70;2.70;;;;;;;12.20;49.91;96217.05;106480;1254;71727;-79
2023/03/14 04:50:48;;;;;;;4.20;2.00;;;;;;;12.20;50.01;96217.23;106621;1254;72563;-80
2023/03/14 04:53:15;;;;;;;7.50;2.20;;;;;;;12.16;50.17;96212.17;106640;1254;61316;-80
2023/03/14 04:55:42;;;;;;;3.60;1.70;;;;;;;12.12;50.11;96219.08;108916;1254;60134;-78
2023/03/14 04:58:08;;;;;;;4.50;2.40;;;;;;;12.09;50.19;96234.40;106008;1255;61269;-81
2023/03/14 05:00:35;;;;;;;3.10;2.20;;;;;;;12.09;50.21;96249.83;106306;1256;62582;-80
2023/03/14 05:03:01;;;;;;;5.80;2.00;;;;;;;12.05;50.33;96256.86;106039;1254;61355;-81
2023/03/14 05:05:28;;;;;;;6.60;2.30;;;;;;;12.04;50.39;96256.39;106063;1260;61241;-80
2023/03/14 05:07:54;;;;;;;5.40;2.20;;;;;;;12.03;50.39;96250.30;106038;1254;61274;-80
2023/03/14 05:10:21;;;;;;;6.10;2.20;;;;;;;11.99;50.81;96251.48;106029;1259;61228;-78
2023/03/14 05:12:47;;;;;;;7.20;2.10;;;;;;;11.88;50.99;96246.56;106051;1258;61344;-80
2023/03/14 05:15:14;;;;;;;6.10;2.50;;;;;;;11.80;51.34;96244.35;106041;1254;61213;-80
2023/03/14 05:17:40;;;;;;;11.40;3.80;;;;;;;11.74;51.24;96241.11;106023;1260;62283;-80
2023/03/14 05:20:13;;;;;;;14.20;4.60;;;;;;;11.68;51.21;96230.27;106040;1260;61359;-78
2023/03/14 05:22:40;;;;;;;11.10;4.50;;;;;;;11.59;51.58;96220.11;106131;1254;73451;-80
2023/03/14 05:25:06;;;;;;;5.70;3.20;;;;;;;11.53;51.65;96216.32;106154;1254;61191;-79
2023/03/14 05:27:33;;;;;;;13.70;7.40;;;;;;;11.52;51.88;96206.40;105992;1254;71892;-79
2023/03/14 05:30:01;;;;;;;19.40;8.90;;;;;;;11.58;51.81;96197.27;106062;1254;61198;-79
2023/03/14 05:32:27;;;;;;;6.10;2.90;;;;;;;11.61;51.90;96193.90;106236;1259;59214;-79
2023/03/14 05:34:57;;;;;;;14.60;5.10;;;;;;;11.64;52.03;96188.68;106097;1260;74482;-79
2023/03/14 05:37:27;;;;;;;6.60;4.00;;;;;;;11.68;51.88;96193.91;106071;1260;71093;-78
2023/03/14 05:39:53;;;;;;;5.60;3.80;;;;;;;11.73;51.89;96197.52;106039;1259;71241;-79
2023/03/14 05:42:20;;;;;;;7.20;3.20;;;;;;;11.77;51.80;96190.00;106058;1254;61333;-79
2023/03/14 05:44:46;;;;;;;8.10;3.80;;;;;;;11.80;51.83;96195.26;106024;1254;61245;-79
2023/03/14 05:47:13;;;;;;;8.00;3.80;;;;;;;11.83;51.94;96196.23;106032;1254;61206;-81
2023/03/14 05:49:39;;;;;;;6.50;2.90;;;;;;;11.85;52.00;96193.96;106122;1255;61368;-79
2023/03/14 05:52:05;;;;;;;10.10;3.90;;;;;;;11.90;51.76;96197.73;106084;1254;62249;-79
2023/03/14 05:54:32;;;;;;;6.20;3.10;;;;;;;11.94;51.74;96195.45;106057;1258;61352;-79
2023/03/14 05:56:58;;;;;;;6.40;3.30;;;;;;;11.97;51.73;96182.48;106132;1259;61442;-79
2023/03/14 05:59:25;;;;;;;11.30;3.80;;;;;;;12.01;51.71;96191.76;106652;1254;61155;-80
2023/03/14 06:01:51;;;;;;;25.40;4.60;;;;;;;12.03;51.87;96193.53;106082;1254;61367;-78
2023/03/14 06:04:18;;;;;;;8.90;4.50;;;;;;;12.05;51.67;96184.80;106144;1254;61356;-79
2023/03/14 06:06:44;;;;;;;13.20;3.90;;;;;;;12.06;51.67;96179.17;106235;1254;61302;-78
2023/03/14 06:09:10;;;;;;;9.90;2.70;;;;;;;12.08;51.72;96177.30;106051;1254;61266;-80
2023/03/14 06:11:37;;;;;;;5.90;3.00;;;;;;;12.07;51.67;96173.70;106076;1257;61167;-78
2023/03/14 06:14:03;;;;;;;7.70;2.70;;;;;;;12.09;51.78;96163.14;106065;1254;61356;-78
2023/03/14 06:16:31;;;;;;;7.70;4.00;;;;;;;12.13;51.59;96161.41;106108;1253;61397;-80
2023/03/14 06:18:58;;;;;;;8.70;3.00;;;;;;;12.18;51.69;96162.66;106005;1254;61372;-80
2023/03/14 06:21:25;;;;;;;16.10;6.00;;;;;;;12.24;51.67;96165.19;106147;1254;62083;-80
2023/03/14 06:23:51;;;;;;;9.70;4.50;;;;;;;12.26;51.66;96164.48;106158;1254;74256;-80
2023/03/14 06:26:18;;;;;;;9.50;3.50;;;;;;;12.33;51.47;96163.16;106159;1257;61340;-80
2023/03/14 06:28:44;;;;;;;14.30;3.50;;;;;;;12.37;51.36;96153.77;106139;1254;61262;-80
2023/03/14 06:31:11;;;;;;;4.40;2.60;;;;;;;12.43;51.27;96153.05;106239;1254;63296;-80
2023/03/14 06:33:37;;;;;;;8.80;4.00;;;;;;;12.49;51.10;96151.29;106352;1256;61154;-79
2023/03/14 06:36:04;;;;;;;8.80;3.50;;;;;;;12.53;51.24;96157.73;106043;1257;74633;-79
2023/03/14 06:38:30;;;;;;;6.50;3.60;;;;;;;12.56;51.31;96154.65;106340;1254;69931;-80
2023/03/14 06:41:03;;;;;;;7.00;3.40;;;;;;;12.62;51.38;96152.73;106160;1256;61301;-80
2023/03/14 06:43:29;;;;;;;8.20;3.30;;;;;;;12.65;50.95;96144.27;106553;1258;62295;-80
2023/03/14 06:45:56;;;;;;;10.10;3.10;;;;;;;12.68;51.05;96148.00;106398;1257;61215;-79
2023/03/14 06:48:22;;;;;;;10.80;5.30;;;;;;;12.70;50.99;96146.81;106268;1254;61256;-78
2023/03/14 06:50:49;;;;;;;10.30;3.90;;;;;;;12.74;50.98;96147.39;106270;1254;61718;-78
2023/03/14 06:53:15;;;;;;;13.40;5.00;;;;;;;12.80;51.01;96139.36;106278;1254;61240;-78
2023/03/14 06:55:42;;;;;;;7.10;4.70;;;;;;;12.85;50.79;96133.55;106285;1257;62258;-80
2023/03/14 06:58:09;;;;;;;10.10;5.00;;;;;;;12.93;50.74;96140.65;106130;1259;61158;-78
2023/03/14 07:00:35;;;;;;;9.80;5.50;;;;;;;12.98;50.59;96146.92;106344;1254;61158;-78
2023/03/14 07:03:02;;;;;;;8.00;4.60;;;;;;;13.02;50.34;96149.94;106458;1254;63147;-80
2023/03/14 07:05:28;;;;;;;11.40;5.30;;;;;;;13.09;50.33;96148.44;106341;1257;61282;-78
2023/03/14 07:07:55;;;;;;;11.50;3.10;;;;;;;13.14;50.30;96153.89;106187;1258;61238;-79
2023/03/14 07:10:22;;;;;;;9.10;3.00;;;;;;;13.20;50.20;96155.65;106746;1254;61142;-80
2023/03/14 07:12:48;;;;;;;15.40;5.40;;;;;;;13.23;50.18;96158.07;106254;1253;61298;-81
2023/03/14 07:15:15;;;;;;;3.30;1.80;;;;;;;13.24;50.21;96160.73;106315;1253;71374;-80
2023/03/14 07:17:41;;;;;;;6.50;2.50;;;;;;;13.30;49.77;96150.59;106253;1253;72528;-79
2023/03/14 07:20:09;;;;;;;5.80;2.50;;;;;;;13.34;49.82;96158.11;106211;1254;61273;-79
2023/03/14 07:22:35;;;;;;;5.50;2.40;;;;;;;13.39;49.78;96163.05;106325;1255;61064;-80
2023/03/14 07:25:02;;;;;;;6.70;2.80;;;;;;;13.38;49.54;96159.08;106294;1257;61249;-79
2023/03/14 07:27:28;;;;;;;4.40;2.60;;;;;;;13.39;49.50;96160.49;106915;1258;70073;-80
2023/03/14 07:29:54;;;;;;;6.10;3.50;;;;;;;13.40;49.23;96157.90;106802;1254;61132;-78
2023/03/14 07:32:21;;;;;;;4.10;2.40;;;;;;;13.45;49.40;96149.67;106307;1256;61148;-78
2023/03/14 07:34:47;;;;;;;8.90;3.80;;;;;;;13.62;49.40;96142.38;106214;1254;61308;-80
2023/03/14 07:37:14;;;;;;;8.00;3.20;;;;;;;13.76;49.15;96152.90;106301;1253;61310;-78
2023/03/14 07:39:40;;;;;;;4.30;2.60;;;;;;;13.85;48.51;96160.61;106660;1253;61356;-77
2023/03/14 07:42:06;;;;;;;5.40;2.90;;;;;;;14.06;48.57;96162.99;106838;1255;61339;-78
2023/03/14 07:44:33;;;;;;;5.20;2.80;;;;;;;14.71;47.17;96145.13;106248;1254;61259;-77
2023/03/14 07:46:59;;;;;;;5.50;2.90;;;;;;;15.09;45.96;96151.52;106166;1254;62193;-78
2023/03/14 07:49:26;;;;;;;7.30;2.80;;;;;;;15.28;45.78;96161.15;105990;1261;62016;-78
2023/03/14 07:51:52;;;;;;;11.80;5.30;;;;;;;15.43;45.84;96173.41;106343;1256;61333;-79
2023/03/14 07:54:18;;;;;;;6.50;3.30;;;;;;;15.42;45.06;96176.05;106359;1253;61273;-77
2023/03/14 07:56:45;;;;;;;7.20;3.30;;;;;;;15.37;45.13;96180.79;106433;1254;61323;-78
2023/03/14 07:59:12;;;;;;;4.80;3.00;;;;;;;15.25;45.54;96177.14;106288;1254;61288;-78
2023/03/14 08:01:38;;;;;;;6.70;2.10;;;;;;;15.08;45.16;96165.74;106241;1253;62111;-78
2023/03/14 08:04:05;;;;;;;4.70;2.80;;;;;;;14.90;44.50;96162.58;106314;1253;61353;-78
2023/03/14 08:06:31;;;;;;;8.00;4.20;;;;;;;14.72;44.55;96167.27;106257;1257;61331;-78
2023/03/14 08:08:57;;;;;;;5.80;3.10;;;;;;;14.52;45.42;96165.82;106189;1253;61238;-79
2023/03/14 08:11:24;;;;;;;12.10;4.50;;;;;;;14.46;45.40;96173.13;106239;1257;61369;-80
2023/03/14 08:13:51;;;;;;;13.10;4.90;;;;;;;14.42;45.20;96168.10;106292;1254;61296;-78
2023/03/14 08:16:18;;;;;;;5.70;2.70;;;;;;;14.44;45.32;96172.36;106372;1259;61372;-77
2023/03/14 08:18:45;;;;;;;9.60;3.40;;;;;;;14.33;44.97;96164.98;106896;1254;61266;-80
2023/03/14 08:21:11;;;;;;;5.50;3.40;;;;;;;14.22;45.03;96165.87;106737;1253;61154;-79
2023/03/14 08:23:38;;;;;;;6.00;2.50;;;;;;;14.20;45.55;96165.40;106673;1254;60220;-77
2023/03/14 08:26:04;;;;;;;8.90;3.90;;;;;;;14.21;45.33;96163.42;106798;1254;61227;-79
2023/03/14 08:28:32;;;;;;;7.20;3.30;;;;;;;14.18;45.53;96164.41;106739;1253;61218;-77
2023/03/14 08:31:00;;;;;;;5.30;2.40;;;;;;;14.19;45.82;96157.51;106716;1254;73792;-78
2023/03/14 08:33:27;;;;;;;7.70;3.80;;;;;;;14.28;45.64;96149.15;106777;1254;61547;-77
2023/03/14 08:35:55;;;;;;;9.70;3.50;;;;;;;14.35;45.62;96144.89;106839;1253;61771;-77
2023/03/14 08:38:21;;;;;;;6.60;3.40;;;;;;;14.41;45.71;96139.60;106779;1254;73477;-78
2023/03/14 08:40:49;;;;;;;8.70;4.30;;;;;;;14.48;45.48;96140.55;106747;1253;61273;-77
2023/03/14 08:43:15;;;;;;;5.80;3.90;;;;;;;14.65;45.33;96153.31;106830;1253;72953;-78
2023/03/14 08:45:42;;;;;;;7.60;3.70;;;;;;;14.85;45.17;96151.79;106551;1257;61251;-78
2023/03/14 08:48:08;;;;;;;10.10;4.40;;;;;;;14.92;44.77;96160.22;106550;1254;61807;-77
2023/03/14 08:50:35;;;;;;;7.80;4.80;;;;;;;14.77;44.81;96166.23;106159;1254;61391;-79
2023/03/14 08:53:02;;;;;;;8.80;5.00;;;;;;;14.61;45.27;96164.58;106291;1253;61270;-80
2023/03/14 08:55:28;;;;;;;11.60;4.50;;;;;;;14.47;45.29;96169.64;106249;1257;72010;-81
2023/03/14 08:57:55;;;;;;;7.20;3.30;;;;;;;14.32;45.20;96170.17;106199;1257;61391;-78
2023/03/14 09:00:21;;;;;;;5.60;4.50;;;;;;;14.34;45.63;96174.51;106714;1254;61439;-78
2023/03/14 09:02:48;;;;;;;11.30;5.40;;;;;;;14.48;45.39;96165.48;106925;1254;61252;-79
2023/03/14 09:05:14;;;;;;;6.70;3.50;;;;;;;14.48;45.59;96148.59;106944;1254;61334;-80
2023/03/14 09:07:41;;;;;;;9.60;4.00;;;;;;;14.60;45.69;96146.57;106697;1254;61356;-79
2023/03/14 09:10:08;;;;;;;6.60;2.90;;;;;;;14.65;45.39;96152.02;106123;1253;61224;-77
2023/03/14 09:12:35;;;;;;;8.40;4.70;;;;;;;14.66;45.44;96153.43;106248;1257;61161;-79
2023/03/14 09:15:01;;;;;;;4.80;3.10;;;;;;;14.76;45.06;96156.17;106200;1254;61157;-81
2023/03/14 09:17:28;;;;;;;5.80;3.00;;;;;;;14.84;44.88;96159.70;106095;1254;71025;-80
2023/03/14 09:19:55;;;;;;;6.80;3.30;;;;;;;14.85;44.98;96145.55;106083;1256;72630;-80
2023/03/14 09:22:21;;;;;;;5.70;2.60;;;;;;;14.85;45.00;96136.67;106103;1254;61176;-77
2023/03/14 09:24:47;;;;;;;4.20;2.80;;;;;;;14.79;45.06;96147.52;106231;1253;61254;-79
2023/03/14 09:27:14;;;;;;;4.60;2.80;;;;;;;14.78;45.41;96153.27;106226;1253;60807;-78
2023/03/14 09:29:40;;;;;;;5.30;2.50;;;;;;;14.74;45.24;96137.96;106105;1253;61248;-80
2023/03/14 09:32:07;;;;;;;8.30;4.90;;;;;;;14.80;45.23;96150.66;106131;1253;62248;-79
2023/03/14 09:34:33;;;;;;;4.10;3.30;;;;;;;14.87;45.09;96154.11;106171;1258;61238;-79
2023/03/14 09:37:00;;;;;;;5.00;2.70;;;;;;;14.90;45.05;96158.55;106110;1257;62298;-79
2023/03/14 09:39:26;;;;;;;6.30;3.00;;;;;;;14.95;44.96;96150.94;106158;1255;61317;-80
2023/03/14 09:41:54;;;;;;;13.30;3.50;;;;;;;15.01;44.82;96147.66;106185;1253;61215;-78
2023/03/14 09:44:31;;;;;;;5.00;2.80;;;;;;;15.13;44.81;96153.41;106125;1253;72066;-78
2023/03/14 09:47:06;;;;;;;5.10;2.50;;;;;;;15.21;44.84;96162.56;106982;1253;61337;-78
2023/03/14 09:49:37;;;;;;;8.80;3.30;;;;;;;15.22;44.57;96161.10;106737;1253;61140;-79
2023/03/14 09:52:15;;;;;;;5.10;2.90;;;;;;;15.21;44.83;96178.69;107123;1255;74729;-80
2023/03/14 09:54:53;;;;;;;4.30;2.60;;;;;;;15.31;44.76;96184.54;108116;1254;70483;-78
2023/03/14 09:57:24;;;;;;;5.60;3.30;;;;;;;15.47;44.64;96192.86;108474;1255;72692;-79
2023/03/14 09:59:51;;;;;;;24.60;4.70;;;;;;;15.61;44.55;96207.77;109224;1253;59067;-79
2023/03/14 10:02:22;;;;;;;6.00;3.40;;;;;;;15.75;44.35;96217.70;106659;1255;61156;-79
2023/03/14 10:04:50;;;;;;;8.30;3.20;;;;;;;15.89;44.14;96212.22;106240;1254;75742;-80
2023/03/14 10:07:28;;;;;;;5.10;2.80;;;;;;;15.93;43.92;96207.41;106040;1254;71360;-80
2023/03/14 10:09:54;;;;;;;3.80;2.60;;;;;;;15.91;43.89;96220.54;106187;1257;73123;-81
2023/03/14 10:12:30;;;;;;;9.60;3.20;;;;;;;15.96;43.91;96224.17;106301;1254;61334;-81
2023/03/14 10:14:57;;;;;;;5.10;2.40;;;;;;;16.02;43.86;96231.09;106294;1257;61347;-80
2023/03/14 10:17:24;;;;;;;5.10;2.40;;;;;;;16.05;43.85;96224.75;105939;1254;74897;-81
2023/03/14 10:19:56;;;;;;;3.50;2.50;;;;;;;16.08;44.04;96220.36;106604;1254;73097;-77
2023/03/14 10:22:24;;;;;;;4.80;3.00;;;;;;;16.13;44.44;96231.07;106457;1258;72574;-78
2023/03/14 10:25:01;;;;;;;4.20;2.80;;;;;;;16.11;44.27;96239.63;106136;1254;61283;-80
2023/03/14 10:27:35;;;;;;;6.50;2.70;;;;;;;16.13;44.46;96248.94;106167;1255;61028;-78
2023/03/14 10:30:04;;;;;;;5.00;2.40;;;;;;;16.10;44.41;96260.84;106190;1258;74582;-79
2023/03/14 10:32:35;;;;;;;8.10;3.60;;;;;;;16.02;44.77;96272.22;106225;1257;70072;-81
2023/03/14 10:35:18;;;;;;;5.60;2.10;;;;;;;15.92;45.10;96269.80;106123;1258;72613;-77
2023/03/14 10:38:00;;;;;;;7.20;2.50;;;;;;;15.82;45.16;96266.45;106041;1254;61219;-81
2023/03/14 10:40:32;;;;;;;3.70;2.60;;;;;;;15.80;45.35;96264.77;106635;1253;61257;-81
2023/03/14 10:42:59;;;;;;;4.60;2.50;;;;;;;15.73;45.70;96255.97;106677;1253;73666;-79
2023/03/14 10:45:37;;;;;;;6.20;2.40;;;;;;;15.67;45.71;96249.80;106574;1259;69787;-81
2023/03/14 10:48:33;;;;;;;6.20;2.50;;;;;;;15.49;46.36;96249.45;106504;1254;72703;-80
2023/03/14 10:50:59;;;;;;;7.10;3.20;;;;;;;15.41;46.54;96252.06;106602;1254;61331;-78
2023/03/14 10:53:26;;;;;;;6.00;3.00;;;;;;;15.34;46.88;96245.41;106696;1253;61165;-78
2023/03/14 10:55:52;;;;;;;5.60;2.50;;;;;;;15.30;47.04;96249.52;105947;1260;74532;-78
2023/03/14 10:58:24;;;;;;;4.50;2.70;;;;;;;15.22;47.37;96255.34;106099;1253;61407;-78
2023/03/14 11:00:57;;;;;;;5.60;2.60;;;;;;;15.17;47.42;96253.73;105963;1259;71426;-79
2023/03/14 11:03:24;;;;;;;5.20;3.20;;;;;;;15.10;47.62;96255.50;106331;1256;61240;-79
2023/03/14 11:06:26;;;;;;;2.80;2.00;;;;;;;15.08;47.44;96249.60;108927;1253;60964;-78
2023/03/14 11:08:57;;;;;;;7.50;1.90;;;;;;;15.12;47.58;96240.65;105997;1255;73285;-80
2023/03/14 11:11:26;;;;;;;6.20;3.30;;;;;;;15.16;47.62;96234.23;107196;1253;70516;-79
2023/03/14 11:13:55;;;;;;;7.00;4.20;;;;;;;15.21;47.67;96234.12;109247;1254;72555;-77
2023/03/14 11:16:21;;;;;;;;;;;;;;;15.28;47.78;96227.02;109265;1253;59360;-79
2023/03/14 11:18:52;;;;;;;4.20;1.90;;;;;;;15.34;48.02;96230.06;106820;1253;61699;-78
2023/03/14 11:21:38;;;;;;;5.00;2.40;;;;;;;15.41;47.65;96221.95;106125;1254;74517;-79
2023/03/14 11:24:13;;;;;;;4.00;3.00;;;;;;;15.42;47.45;96223.48;106068;1257;71620;-81
2023/03/14 11:26:45;;;;;;;5.00;2.50;;;;;;;15.39;47.73;96223.88;106227;1253;70746;-79
2023/03/14 11:29:22;;;;;;;5.90;4.00;;;;;;;15.45;47.36;96214.48;106600;1257;61224;-79